createdAt,value
2019-02-27T00:04:02.425Z,14.29
2019-02-27T00:07:14.103Z,14.28
2019-02-27T00:09:48.551Z,14.27
2019-02-27T00:12:40.555Z,14.24
2019-02-27T00:15:37.757Z,14.28
2019-02-27T00:18:30.997Z,14.33
2019-02-27T00:24:12.155Z,14.43
2019-02-27T00:26:44.690Z,14.48
2019-02-27T00:29:16.646Z,14.55
2019-02-27T00:32:07.808Z,14.46
2019-02-27T00:34:58.357Z,14.48
2019-02-27T00:37:51.962Z,14.54
2019-02-27T00:40:24.887Z,14.54
2019-02-27T00:43:38.462Z,14.47
2019-02-27T00:46:13.380Z,14.54
2019-02-27T00:49:03.682Z,14.55
2019-02-27T00:51:50.482Z,14.57
2019-02-27T00:58:06.115Z,14.60
2019-02-27T01:00:45.260Z,14.36
2019-02-27T01:03:17.508Z,14.18
2019-02-27T01:05:52.097Z,14.17
2019-02-27T01:08:39.242Z,14.03
2019-02-27T01:11:02.610Z,13.87
2019-02-27T01:16:56.649Z,13.91
2019-02-27T01:19:29.495Z,13.83
2019-02-27T01:22:02.132Z,13.80
2019-02-27T01:24:53.103Z,13.66
2019-02-27T01:27:25.364Z,13.57
2019-02-27T01:29:57.744Z,13.50
2019-02-27T01:32:48.360Z,13.33
2019-02-27T01:35:21.951Z,13.33
2019-02-27T01:37:52.985Z,13.28
2019-02-27T01:40:43.654Z,13.30
2019-02-27T01:43:15.993Z,13.24
2019-02-27T01:45:46.798Z,13.14
2019-02-27T01:48:42.733Z,13.08
2019-02-27T01:51:16.156Z,13.09
2019-02-27T01:54:23.821Z,13.13
2019-02-27T01:57:05.489Z,13.05
2019-02-27T01:59:56.123Z,13.06
2019-02-27T02:02:29.219Z,13.15
2019-02-27T02:04:59.233Z,13.11
2019-02-27T02:07:49.907Z,13.15
2019-02-27T02:10:22.064Z,13.20
2019-02-27T02:13:17.033Z,13.13
2019-02-27T02:16:27.001Z,13.17
2019-02-27T02:19:37.226Z,13.03
2019-02-27T02:22:46.972Z,12.87
2019-02-27T02:25:45.454Z,12.89
2019-02-27T02:28:55.641Z,12.95
2019-02-27T02:32:05.506Z,13.03
2019-02-27T02:35:15.785Z,12.88
2019-02-27T02:38:26.169Z,12.70
2019-02-27T02:41:21.028Z,12.57
2019-02-27T02:44:32.772Z,12.50
2019-02-27T02:47:34.059Z,12.38
2019-02-27T02:50:33.941Z,12.19
2019-02-27T02:53:42.845Z,12.05
2019-02-27T02:56:52.146Z,11.95
2019-02-27T03:00:02.338Z,11.91
2019-02-27T03:03:17.910Z,11.97
2019-02-27T03:06:34.565Z,12.00
2019-02-27T03:09:55.278Z,12.17
2019-02-27T03:13:05.991Z,12.17
2019-02-27T03:19:33.212Z,12.26
2019-02-27T03:22:42.598Z,12.18
2019-02-27T03:25:53.087Z,12.11
2019-02-27T03:29:02.387Z,12.16
2019-02-27T03:32:12.662Z,12.11
2019-02-27T03:35:27.546Z,12.73
2019-02-27T03:38:34.493Z,12.73
2019-02-27T03:41:28.930Z,12.08
2019-02-27T03:44:27.844Z,11.79
2019-02-27T03:47:22.802Z,11.98
2019-02-27T03:50:31.186Z,11.59
2019-02-27T03:53:43.352Z,11.51
2019-02-27T03:56:54.977Z,11.12
2019-02-27T04:00:04.293Z,11.00
2019-02-27T04:03:17.099Z,10.95
2019-02-27T04:06:24.479Z,10.93
2019-02-27T04:09:33.867Z,10.83
2019-02-27T04:12:23.572Z,10.73
2019-02-27T04:15:17.664Z,10.67
2019-02-27T04:18:03.584Z,10.57
2019-02-27T04:20:37.222Z,10.53
2019-02-27T04:26:15.106Z,10.49
2019-02-27T04:29:08.331Z,10.55
2019-02-27T04:31:40.285Z,10.61
2019-02-27T04:34:11.096Z,10.71
2019-02-27T04:37:02.325Z,10.95
2019-02-27T04:39:54.365Z,10.99
2019-02-27T04:42:26.522Z,10.99
2019-02-27T04:44:58.441Z,10.94
2019-02-27T04:47:31.569Z,10.76
2019-02-27T04:50:23.129Z,10.68
2019-02-27T04:52:57.738Z,10.74
2019-02-27T04:55:48.014Z,10.71
2019-02-27T04:58:42.823Z,10.67
2019-02-27T05:01:30.731Z,10.81
2019-02-27T05:04:04.570Z,10.72
2019-02-27T05:06:55.258Z,10.79
2019-02-27T05:09:45.596Z,10.73
2019-02-27T05:15:45.456Z,10.69
2019-02-27T05:18:36.141Z,10.61
2019-02-27T05:24:32.772Z,10.80
2019-02-27T05:27:03.591Z,10.82
2019-02-27T05:30:04.067Z,10.87
2019-02-27T05:33:01.816Z,10.91
2019-02-27T05:35:47.908Z,10.93
2019-02-27T05:44:10.993Z,11.01
2019-02-27T05:46:44.011Z,10.99
2019-02-27T05:49:16.324Z,10.88
2019-02-27T05:51:48.432Z,10.88
2019-02-27T05:54:20.058Z,10.83
2019-02-27T05:56:53.818Z,10.83
2019-02-27T05:59:29.407Z,10.76
2019-02-27T06:02:22.342Z,10.84
2019-02-27T06:05:16.946Z,10.87
2019-02-27T06:11:36.936Z,10.65
2019-02-27T06:14:26.889Z,10.63
2019-02-27T06:16:58.207Z,10.52
2019-02-27T06:19:33.564Z,10.50
2019-02-27T06:22:10.783Z,10.41
2019-02-27T06:24:45.581Z,10.32
2019-02-27T06:27:21.506Z,10.32
2019-02-27T06:29:56.587Z,10.28
2019-02-27T06:32:44.624Z,10.19
2019-02-27T06:35:19.451Z,10.19
2019-02-27T06:37:58.297Z,10.27
2019-02-27T06:40:32.826Z,10.39
2019-02-27T06:43:44.486Z,10.90
2019-02-27T06:46:27.302Z,11.50
2019-02-27T06:49:29.186Z,12.09
2019-02-27T06:52:14.154Z,12.65
2019-02-27T06:55:04.244Z,13.15
2019-02-27T06:57:54.642Z,13.41
2019-02-27T07:00:46.354Z,13.85
2019-02-27T07:06:21.663Z,14.63
2019-02-27T07:08:55.105Z,14.56
2019-02-27T07:11:33.603Z,14.38
2019-02-27T07:14:05.267Z,14.22
2019-02-27T07:16:37.872Z,14.13
2019-02-27T07:19:08.205Z,14.04
2019-02-27T07:22:17.861Z,13.99
2019-02-27T07:25:08.608Z,13.84
2019-02-27T07:30:59.783Z,13.82
2019-02-27T07:33:34.091Z,13.73
2019-02-27T07:38:57.537Z,13.74
2019-02-27T07:41:30.113Z,13.69
2019-02-27T07:44:57.689Z,13.68
2019-02-27T07:47:15.412Z,13.57
2019-02-27T07:50:23.447Z,13.70
2019-02-27T07:52:54.187Z,13.68
2019-02-27T07:56:02.601Z,13.78
2019-02-27T07:59:59.437Z,13.88
2019-02-27T08:02:05.570Z,13.89
2019-02-27T08:04:55.337Z,14.14
2019-02-27T08:07:48.661Z,14.43
2019-02-27T08:10:36.760Z,14.80
2019-02-27T08:13:29.588Z,15.11
2019-02-27T08:15:56.389Z,15.10
2019-02-27T08:18:46.131Z,15.21
2019-02-27T08:21:17.945Z,15.42
2019-02-27T08:23:56.394Z,15.56
2019-02-27T08:26:26.902Z,15.45
2019-02-27T08:29:37.681Z,15.60
2019-02-27T08:32:28.115Z,15.69
2019-02-27T08:38:38.227Z,15.30
2019-02-27T08:41:31.490Z,15.54
2019-02-27T08:44:07.882Z,15.90
2019-02-27T08:46:57.689Z,15.71
2019-02-27T08:52:57.814Z,15.87
2019-02-27T08:55:30.876Z,16.12
2019-02-27T08:58:26.759Z,16.60
2019-02-27T09:07:22.091Z,17.27
2019-02-27T09:10:30.904Z,17.42
2019-02-27T09:13:05.815Z,17.53
2019-02-27T09:15:59.376Z,17.71
2019-02-27T09:19:01.173Z,17.97
2019-02-27T09:27:20.094Z,18.42
2019-02-27T09:30:28.485Z,18.62
2019-02-27T09:33:04.912Z,18.90
2019-02-27T09:35:47.162Z,19.09
2019-02-27T09:38:24.399Z,19.37
2019-02-27T09:43:52.433Z,20.35
2019-02-27T09:46:49.866Z,20.61
2019-02-27T09:49:25.095Z,21.11
2019-02-27T09:52:34.126Z,21.42
2019-02-27T09:55:25.265Z,21.41
2019-02-27T10:01:24.219Z,21.99
2019-02-27T10:04:47.768Z,22.27
2019-02-27T10:07:23.091Z,22.30
2019-02-27T10:10:33.439Z,22.27
2019-02-27T10:13:04.111Z,22.30
2019-02-27T10:16:03.688Z,22.65
2019-02-27T10:18:39.930Z,22.73
2019-02-27T10:21:17.171Z,22.83
2019-02-27T10:26:53.544Z,23.00
2019-02-27T10:29:24.579Z,23.21
2019-02-27T10:32:00.716Z,23.43
2019-02-27T10:34:31.511Z,23.63
2019-02-27T10:41:02.953Z,23.88
2019-02-27T10:50:04.048Z,23.98
2019-02-27T10:52:56.484Z,24.14
2019-02-27T10:55:57.376Z,24.81
2019-02-27T10:59:09.056Z,24.80
2019-02-27T11:04:43.485Z,25.33
2019-02-27T11:13:51.409Z,26.23
2019-02-27T11:17:03.392Z,26.49
2019-02-27T11:22:47.062Z,26.91
2019-02-27T11:25:37.575Z,27.23
2019-02-27T11:28:08.933Z,27.51
2019-02-27T11:30:59.791Z,27.54
2019-02-27T11:36:29.756Z,27.14
2019-02-27T11:39:19.362Z,26.63
2019-02-27T11:42:10.584Z,27.02
2019-02-27T11:45:14.228Z,27.55
2019-02-27T11:50:43.631Z,27.64
2019-02-27T11:53:36.005Z,28.57
2019-02-27T11:59:57.791Z,28.78
2019-02-27T12:02:37.843Z,28.45
2019-02-27T12:08:48.930Z,28.37
2019-02-27T12:11:40.657Z,28.09
2019-02-27T12:14:25.692Z,28.18
2019-02-27T12:16:57.799Z,28.13
2019-02-27T12:23:07.384Z,28.36
2019-02-27T12:26:06.380Z,28.99
2019-02-27T12:28:59.516Z,29.43
2019-02-27T12:32:06.637Z,29.43
2019-02-27T12:35:13.193Z,29.48
2019-02-27T12:40:32.949Z,30.03
2019-02-27T12:46:34.803Z,30.08
2019-02-27T12:49:38.975Z,29.98
2019-02-27T12:52:48.076Z,29.85
2019-02-27T13:01:33.335Z,29.42
2019-02-27T13:04:19.925Z,29.57
2019-02-27T13:06:41.227Z,29.85
2019-02-27T13:15:26.375Z,30.64
2019-02-27T13:18:19.100Z,30.77
2019-02-27T13:21:12.288Z,30.80
2019-02-27T13:23:42.707Z,31.03
2019-02-27T13:26:34.708Z,30.98
2019-02-27T13:32:26.550Z,30.61
2019-02-27T13:34:59.105Z,30.59
2019-02-27T13:37:46.041Z,30.48
2019-02-27T13:43:58.260Z,30.20
2019-02-27T13:46:29.905Z,30.31
2019-02-27T13:49:00.397Z,30.32
2019-02-27T13:51:36.134Z,30.32
2019-02-27T13:54:06.790Z,30.46
2019-02-27T13:57:00.854Z,30.28
2019-02-27T13:59:46.526Z,29.87
2019-02-27T14:02:47.533Z,29.73
2019-02-27T14:08:57.580Z,30.01
2019-02-27T14:11:52.402Z,29.95
2019-02-27T14:14:26.336Z,30.01
2019-02-27T14:17:41.302Z,30.37
2019-02-27T14:20:11.797Z,30.27
2019-02-27T14:22:46.098Z,29.99
2019-02-27T14:25:28.474Z,30.31
2019-02-27T14:28:09.346Z,30.13
2019-02-27T14:31:00.766Z,30.20
2019-02-27T14:36:51.889Z,29.86
2019-02-27T14:40:03.762Z,30.17
2019-02-27T14:42:56.205Z,29.65
2019-02-27T14:45:47.138Z,29.41
2019-02-27T14:48:18.140Z,29.21
2019-02-27T14:50:52.640Z,28.99
2019-02-27T14:53:23.991Z,29.19
2019-02-27T14:56:00.201Z,29.39
2019-02-27T14:58:40.419Z,29.46
2019-02-27T15:01:11.831Z,29.61
2019-02-27T15:04:13.898Z,29.46
2019-02-27T15:06:51.449Z,29.18
2019-02-27T15:09:47.826Z,29.28
2019-02-27T15:12:16.184Z,29.58
2019-02-27T15:15:06.837Z,29.56
2019-02-27T15:18:16.204Z,29.37
2019-02-27T15:21:13.253Z,29.22
2019-02-27T15:23:50.755Z,29.02
2019-02-27T15:26:22.612Z,29.04
2019-02-27T15:28:57.365Z,28.95
2019-02-27T15:38:04.601Z,29.15
2019-02-27T15:40:57.074Z,29.05
2019-02-27T15:44:00.258Z,29.00
2019-02-27T15:47:01.393Z,28.78
2019-02-27T15:52:22.708Z,28.81
2019-02-27T15:58:11.397Z,28.83
2019-02-27T16:00:52.297Z,28.95
2019-02-27T16:03:38.991Z,28.84
2019-02-27T16:06:19.819Z,28.69
2019-02-27T16:09:11.940Z,28.60
2019-02-27T16:16:11.378Z,28.44
2019-02-27T16:18:44.006Z,28.22
2019-02-27T16:21:33.719Z,28.23
2019-02-27T16:24:44.148Z,28.02
2019-02-27T16:28:00.182Z,27.90
2019-02-27T16:30:32.757Z,27.88
2019-02-27T16:33:25.242Z,27.79
2019-02-27T16:36:00.457Z,27.73
2019-02-27T16:38:31.648Z,27.36
2019-02-27T16:41:27.953Z,26.87
2019-02-27T16:44:21.798Z,26.55
2019-02-27T16:47:11.851Z,26.12
2019-02-27T16:59:09.702Z,25.09
2019-02-27T17:02:00.908Z,24.76
2019-02-27T17:04:17.356Z,24.67
2019-02-27T17:06:49.135Z,24.59
2019-02-27T17:09:23.880Z,24.50
2019-02-27T17:11:56.097Z,24.33
2019-02-27T17:14:45.535Z,24.27
2019-02-27T17:17:18.862Z,24.47
2019-02-27T17:20:12.587Z,23.96
2019-02-27T17:23:15.009Z,23.61
2019-02-27T17:25:37.416Z,23.54
2019-02-27T17:28:08.264Z,23.61
2019-02-27T17:37:06.464Z,23.32
2019-02-27T17:43:01.119Z,23.39
2019-02-27T17:45:31.961Z,23.07
2019-02-27T17:53:57.964Z,22.54
2019-02-27T17:56:38.490Z,22.18
2019-02-27T17:59:31.680Z,21.96
2019-02-27T18:02:34.869Z,21.77
2019-02-27T18:05:35.486Z,21.66
2019-02-27T18:08:16.241Z,21.60
2019-02-27T18:11:15.614Z,21.42
2019-02-27T18:14:25.322Z,21.30
2019-02-27T18:17:18.124Z,21.24
2019-02-27T18:20:40.315Z,21.42
2019-02-27T18:38:37.302Z,21.25
2019-02-27T18:40:58.976Z,21.13
2019-02-27T18:43:50.235Z,21.06
2019-02-27T18:47:21.089Z,21.00
2019-02-27T18:50:32.138Z,20.99
2019-02-27T18:53:23.200Z,20.94
2019-02-27T18:55:57.820Z,20.68
2019-02-27T18:58:31.105Z,20.33
2019-02-27T19:07:07.677Z,19.97
2019-02-27T19:09:59.856Z,19.96
2019-02-27T19:16:10.137Z,20.58
2019-02-27T19:19:42.501Z,20.78
2019-02-27T19:25:44.395Z,20.31
2019-02-27T19:28:59.355Z,20.13
2019-02-27T19:31:30.046Z,20.49
2019-02-27T19:34:07.348Z,20.49
2019-02-27T19:43:05.534Z,20.57
2019-02-27T19:45:36.721Z,20.49
2019-02-27T19:54:20.665Z,20.57
2019-02-27T19:57:24.942Z,20.54
2019-02-27T20:00:14.443Z,20.35
2019-02-27T20:03:04.671Z,20.52
2019-02-27T20:05:56.155Z,20.37
2019-02-27T20:08:49.232Z,20.16
2019-02-27T20:11:58.738Z,19.99
2019-02-27T20:17:54.141Z,20.06
2019-02-27T20:20:45.362Z,20.56
2019-02-27T20:23:48.951Z,20.29
2019-02-27T20:26:44.587Z,20.07
2019-02-27T20:29:46.765Z,20.02
2019-02-27T20:32:18.353Z,19.95
2019-02-27T20:34:52.150Z,19.48
2019-02-27T20:41:00.678Z,18.90
2019-02-27T20:52:53.268Z,18.44
2019-02-27T21:01:49.814Z,18.76
2019-02-27T21:04:22.063Z,19.39
2019-02-27T21:06:56.428Z,19.64
2019-02-27T21:09:36.398Z,19.76
2019-02-27T21:17:50.661Z,19.84
2019-02-27T21:20:23.782Z,19.96
2019-02-27T21:23:13.194Z,19.70
2019-02-27T21:26:22.981Z,19.48
2019-02-27T21:29:14.922Z,19.28
2019-02-27T21:32:04.529Z,19.13
2019-02-27T21:35:14.193Z,18.97
2019-02-27T21:37:46.201Z,18.83
2019-02-27T21:40:18.819Z,18.57
2019-02-27T21:43:08.655Z,18.57
2019-02-27T21:45:39.881Z,18.48
2019-02-27T21:51:19.260Z,18.16
2019-02-27T21:54:00.313Z,18.07
2019-02-27T21:57:12.103Z,17.99
2019-02-27T21:59:55.288Z,17.84
2019-02-27T22:06:01.354Z,17.85
2019-02-27T22:08:50.892Z,17.66
2019-02-27T22:14:51.577Z,17.52
2019-02-27T22:20:36.941Z,17.47
2019-02-27T22:23:45.991Z,17.31
2019-02-27T22:30:05.558Z,17.65
2019-02-27T22:32:55.642Z,17.62
2019-02-27T22:35:45.156Z,17.58
2019-02-27T22:38:53.980Z,17.35
2019-02-27T22:41:45.044Z,17.39
2019-02-27T22:47:18.461Z,17.09
2019-02-27T22:50:10.145Z,16.97
2019-02-27T22:53:04.472Z,16.63
2019-02-27T22:55:46.774Z,16.46
2019-02-27T23:17:13.844Z,16.31
2019-02-27T23:20:20.912Z,15.91
2019-02-27T23:26:41.443Z,15.83
2019-02-27T23:29:50.413Z,15.65
2019-02-27T23:32:51.035Z,15.33
2019-02-27T23:38:34.894Z,15.17
2019-02-27T23:41:39.634Z,15.12
2019-02-27T23:44:39.358Z,14.96
2019-02-27T23:53:58.638Z,14.78
2019-02-27T23:56:36.394Z,14.53
